createdAt,value
2017-12-16T00:00:23.582Z,2.44
2017-12-16T00:01:23.572Z,2.51
2017-12-16T00:02:23.588Z,2.49
2017-12-16T00:03:23.504Z,2.39
2017-12-16T00:04:23.535Z,2.49
2017-12-16T00:05:23.622Z,2.42
2017-12-16T00:06:23.524Z,2.46
2017-12-16T00:07:23.428Z,2.42
2017-12-16T00:08:23.366Z,2.44
2017-12-16T00:09:23.412Z,2.36
2017-12-16T00:10:23.361Z,2.43
2017-12-16T00:11:23.341Z,2.36
2017-12-16T00:12:23.296Z,2.49
2017-12-16T00:13:23.289Z,2.44
2017-12-16T00:14:23.248Z,2.51
2017-12-16T00:15:23.792Z,2.36
2017-12-16T00:16:23.221Z,2.35
2017-12-16T00:17:23.172Z,2.47
2017-12-16T00:18:23.329Z,2.44
2017-12-16T00:19:23.164Z,2.36
2017-12-16T00:20:23.139Z,2.39
2017-12-16T00:21:23.071Z,2.36
2017-12-16T00:22:23.114Z,2.36
2017-12-16T00:23:23.015Z,2.28
2017-12-16T00:24:23.022Z,2.29
2017-12-16T00:25:23.067Z,2.26
2017-12-16T00:26:23.060Z,2.28
2017-12-16T00:27:22.949Z,2.42
2017-12-16T00:28:32.323Z,2.38
2017-12-16T00:30:16.869Z,2.44
2017-12-16T00:31:16.282Z,2.31
2017-12-16T00:32:16.662Z,2.28
2017-12-16T00:33:16.824Z,2.29
2017-12-16T00:44:32.275Z,2.28
2017-12-16T00:45:32.768Z,2.31
2017-12-16T00:46:32.110Z,2.24
2017-12-16T00:47:31.936Z,2.22
2017-12-16T00:48:32.288Z,2.25
2017-12-16T00:49:32.676Z,2.26
2017-12-16T00:50:32.412Z,2.29
2017-12-16T00:51:32.123Z,2.28
2017-12-16T00:52:31.695Z,2.24
2017-12-16T00:53:31.595Z,2.25
2017-12-16T00:54:31.657Z,2.24
2017-12-16T00:55:31.539Z,2.24
2017-12-16T00:56:31.653Z,2.18
2017-12-16T00:57:31.544Z,2.13
2017-12-16T00:58:31.461Z,2.00
2017-12-16T00:59:31.471Z,1.99
2017-12-16T01:00:31.445Z,2.00
2017-12-16T01:01:31.436Z,2.02
2017-12-16T01:02:31.432Z,1.94
2017-12-16T01:03:31.338Z,1.95
2017-12-16T01:04:31.407Z,1.94
2017-12-16T01:05:31.344Z,1.89
2017-12-16T01:06:31.366Z,1.89
2017-12-16T01:07:31.275Z,1.88
2017-12-16T01:08:31.242Z,1.91
2017-12-16T01:09:31.286Z,1.89
2017-12-16T01:10:31.240Z,1.87
2017-12-16T01:11:31.207Z,1.74
2017-12-16T01:12:31.138Z,1.66
2017-12-16T01:13:31.154Z,1.62
2017-12-16T01:14:31.118Z,1.59
2017-12-16T01:15:31.108Z,1.56
2017-12-16T01:16:31.115Z,1.53
2017-12-16T01:17:31.055Z,1.49
2017-12-16T01:18:31.000Z,1.40
2017-12-16T01:19:31.039Z,1.52
2017-12-16T01:20:30.954Z,1.35
2017-12-16T01:21:30.940Z,1.38
2017-12-16T01:22:30.947Z,1.52
2017-12-16T01:23:31.839Z,1.48
2017-12-16T01:24:30.864Z,1.52
2017-12-16T01:25:30.851Z,1.53
2017-12-16T01:26:30.840Z,1.49
2017-12-16T01:27:30.763Z,1.52
2017-12-16T01:28:30.782Z,1.50
2017-12-16T01:29:30.762Z,1.48
2017-12-16T01:30:30.714Z,1.48
2017-12-16T01:31:30.694Z,1.48
2017-12-16T01:32:30.687Z,1.50
2017-12-16T01:33:30.648Z,1.53
2017-12-16T01:34:31.325Z,1.53
2017-12-16T01:35:30.662Z,1.49
2017-12-16T01:36:30.574Z,1.48
2017-12-16T01:37:30.542Z,1.63
2017-12-16T01:38:30.549Z,1.58
2017-12-16T01:39:30.499Z,1.58
2017-12-16T01:40:30.474Z,1.58
2017-12-16T01:41:30.463Z,1.66
2017-12-16T01:42:30.508Z,1.63
2017-12-16T01:43:30.396Z,1.68
2017-12-16T01:44:30.417Z,1.71
2017-12-16T01:45:32.312Z,1.71
2017-12-16T01:46:30.329Z,1.63
2017-12-16T01:47:30.324Z,1.70
2017-12-16T01:48:30.252Z,1.73
2017-12-16T01:49:30.295Z,1.71
2017-12-16T01:50:30.208Z,1.70
2017-12-16T01:51:30.203Z,1.63
2017-12-16T01:52:30.165Z,1.71
2017-12-16T01:53:30.167Z,1.68
2017-12-16T01:54:30.139Z,1.76
2017-12-16T01:55:30.137Z,1.62
2017-12-16T01:56:30.081Z,1.59
2017-12-16T01:57:30.048Z,1.63
2017-12-16T01:58:30.008Z,1.62
2017-12-16T01:59:30.014Z,1.63
2017-12-16T02:00:30.091Z,1.73
2017-12-16T02:01:29.963Z,1.59
2017-12-16T02:02:29.956Z,1.59
2017-12-16T02:03:29.940Z,1.68
2017-12-16T02:04:29.899Z,1.67
2017-12-16T02:05:29.934Z,1.63
2017-12-16T02:06:29.813Z,1.56
2017-12-16T02:07:29.817Z,1.60
2017-12-16T02:08:29.791Z,1.60
2017-12-16T02:09:29.787Z,1.67
2017-12-16T02:10:29.730Z,1.62
2017-12-16T02:11:29.744Z,1.59
2017-12-16T02:12:29.689Z,1.53
2017-12-16T02:13:29.646Z,1.50
2017-12-16T02:14:29.690Z,1.45
2017-12-16T02:15:29.622Z,1.45
2017-12-16T02:16:29.603Z,1.52
2017-12-16T02:17:29.579Z,1.53
2017-12-16T02:18:29.547Z,1.45
2017-12-16T02:19:29.520Z,1.53
2017-12-16T02:20:29.514Z,1.52
2017-12-16T02:21:29.452Z,1.52
2017-12-16T02:22:29.458Z,1.58
2017-12-16T02:23:29.486Z,1.48
2017-12-16T02:24:29.384Z,1.45
2017-12-16T02:25:29.399Z,1.52
2017-12-16T02:26:29.373Z,1.49
2017-12-16T02:27:29.317Z,1.49
2017-12-16T02:28:29.386Z,1.52
2017-12-16T02:29:29.285Z,1.50
2017-12-16T02:30:29.257Z,1.40
2017-12-16T02:31:29.224Z,1.44
2017-12-16T02:32:29.238Z,1.48
2017-12-16T02:33:29.203Z,1.48
2017-12-16T02:34:29.197Z,1.34
2017-12-16T02:35:29.189Z,1.37
2017-12-16T02:36:29.834Z,1.32
2017-12-16T02:37:29.123Z,1.26
2017-12-16T02:38:29.105Z,1.22
2017-12-16T02:39:29.055Z,1.17
2017-12-16T02:40:29.058Z,1.16
2017-12-16T02:41:29.009Z,1.24
2017-12-16T02:42:29.051Z,1.22
2017-12-16T02:43:28.989Z,1.13
2017-12-16T02:44:28.941Z,1.14
2017-12-16T02:45:29.014Z,1.12
2017-12-16T02:46:28.975Z,1.06
2017-12-16T02:47:31.874Z,1.06
2017-12-16T02:48:28.865Z,1.06
2017-12-16T02:49:28.823Z,1.02
2017-12-16T02:50:28.946Z,1.02
2017-12-16T02:51:28.830Z,1.04
2017-12-16T02:52:28.707Z,1.05
2017-12-16T02:53:28.697Z,1.12
2017-12-16T02:54:28.670Z,0.99
2017-12-16T02:55:28.657Z,0.99
2017-12-16T02:56:28.676Z,0.99
2017-12-16T02:57:28.722Z,1.04
2017-12-16T02:58:28.607Z,0.95
2017-12-16T02:59:28.646Z,1.01
2017-12-16T03:00:28.555Z,0.98
2017-12-16T03:01:28.484Z,1.02
2017-12-16T03:02:28.644Z,0.99
2017-12-16T03:03:28.524Z,1.05
2017-12-16T03:04:28.524Z,0.99
2017-12-16T03:05:28.462Z,1.05
2017-12-16T03:06:28.420Z,0.98
2017-12-16T03:07:28.484Z,1.05
2017-12-16T03:08:28.398Z,0.98
2017-12-16T03:09:28.432Z,0.99
2017-12-16T03:10:28.284Z,1.06
2017-12-16T03:11:28.249Z,1.06
2017-12-16T03:12:28.251Z,1.05
2017-12-16T03:13:28.267Z,1.12
2017-12-16T03:14:28.263Z,1.10
2017-12-16T03:15:28.170Z,1.10
2017-12-16T03:16:28.131Z,1.10
2017-12-16T03:17:28.841Z,1.08
2017-12-16T03:18:28.112Z,1.20
2017-12-16T03:19:28.046Z,1.10
2017-12-16T03:20:28.006Z,1.13
2017-12-16T03:21:27.999Z,1.20
2017-12-16T03:22:28.041Z,1.08
2017-12-16T03:23:27.972Z,1.06
2017-12-16T03:24:27.930Z,1.08
2017-12-16T03:25:27.917Z,1.24
2017-12-16T03:26:27.905Z,1.23
2017-12-16T03:27:27.841Z,1.19
2017-12-16T03:28:27.839Z,1.23
2017-12-16T03:29:27.833Z,1.10
2017-12-16T03:30:27.764Z,1.20
2017-12-16T03:31:27.769Z,1.20
2017-12-16T03:32:27.791Z,1.14
2017-12-16T03:33:27.725Z,1.12
2017-12-16T03:34:27.673Z,1.04
2017-12-16T03:35:27.635Z,1.12
2017-12-16T03:36:27.702Z,1.10
2017-12-16T03:37:27.631Z,1.12
2017-12-16T03:38:27.606Z,1.08
2017-12-16T03:39:27.566Z,1.06
2017-12-16T03:40:27.514Z,1.08
2017-12-16T03:41:27.532Z,1.06
2017-12-16T03:42:27.482Z,1.16
2017-12-16T03:43:27.461Z,1.06
2017-12-16T03:44:27.462Z,1.12
2017-12-16T03:45:27.440Z,1.05
2017-12-16T03:46:28.348Z,1.01
2017-12-16T03:47:27.408Z,1.04
2017-12-16T03:48:27.381Z,1.04
2017-12-16T03:49:27.318Z,1.04
2017-12-16T03:50:27.321Z,1.10
2017-12-16T03:51:27.290Z,1.17
2017-12-16T03:52:27.262Z,1.16
2017-12-16T03:53:27.201Z,1.23
2017-12-16T03:54:27.200Z,1.13
2017-12-16T03:55:27.200Z,1.14
2017-12-16T03:56:27.156Z,1.20
2017-12-16T03:57:27.133Z,1.17
2017-12-16T03:58:27.112Z,1.20
2017-12-16T03:59:27.053Z,1.20
2017-12-16T04:00:27.029Z,1.26
2017-12-16T04:01:27.006Z,1.19
2017-12-16T04:02:26.991Z,1.23
2017-12-16T04:03:27.036Z,1.10
2017-12-16T04:04:26.960Z,1.24
2017-12-16T04:05:26.943Z,1.19
2017-12-16T04:06:26.882Z,1.23
2017-12-16T04:07:26.890Z,1.19
2017-12-16T04:08:26.838Z,1.31
2017-12-16T04:09:26.838Z,1.34
2017-12-16T04:10:26.800Z,1.38
2017-12-16T04:11:26.824Z,1.30
2017-12-16T04:12:26.782Z,1.32
2017-12-16T04:13:26.733Z,1.32
2017-12-16T04:14:26.732Z,1.34
2017-12-16T04:15:26.660Z,1.35
2017-12-16T04:16:26.668Z,1.35
2017-12-16T04:17:26.640Z,1.28
2017-12-16T04:18:26.655Z,1.32
2017-12-16T04:19:26.691Z,1.40
2017-12-16T04:20:26.567Z,1.49
2017-12-16T04:21:26.559Z,1.40
2017-12-16T04:22:26.497Z,1.49
2017-12-16T04:23:26.485Z,1.42
2017-12-16T04:24:26.480Z,1.44
2017-12-16T04:25:29.341Z,1.41
2017-12-16T04:26:26.479Z,1.40
2017-12-16T04:27:26.377Z,1.41
2017-12-16T04:28:26.377Z,1.45
2017-12-16T04:29:26.349Z,1.45
2017-12-16T04:30:26.318Z,1.37
2017-12-16T04:31:26.282Z,1.48
2017-12-16T04:32:26.273Z,1.40
2017-12-16T04:33:26.241Z,1.48
2017-12-16T04:34:26.241Z,1.41
2017-12-16T04:35:26.199Z,1.38
2017-12-16T04:36:26.845Z,1.41
2017-12-16T04:37:26.192Z,1.42
2017-12-16T04:38:26.169Z,1.42
2017-12-16T04:39:26.130Z,1.37
2017-12-16T04:40:26.074Z,1.42
2017-12-16T04:41:26.029Z,1.48
2017-12-16T04:42:26.032Z,1.38
2017-12-16T04:43:26.005Z,1.41
2017-12-16T04:44:26.031Z,1.38
2017-12-16T04:45:25.984Z,1.35
2017-12-16T04:46:25.935Z,1.34
2017-12-16T04:47:25.907Z,1.42
2017-12-16T04:48:25.919Z,1.34
2017-12-16T04:49:25.886Z,1.38
2017-12-16T04:50:25.813Z,1.44
2017-12-16T04:51:25.792Z,1.40
2017-12-16T04:52:25.822Z,1.50
2017-12-16T04:53:25.786Z,1.49
2017-12-16T04:54:25.716Z,1.45
2017-12-16T04:55:25.694Z,1.42
2017-12-16T04:56:25.763Z,1.37
2017-12-16T04:57:26.316Z,1.45
2017-12-16T04:58:25.641Z,1.32
2017-12-16T04:59:25.602Z,1.41
2017-12-16T05:00:25.571Z,1.38
2017-12-16T05:01:25.541Z,1.38
2017-12-16T05:02:25.545Z,1.42
2017-12-16T05:03:25.578Z,1.37
2017-12-16T05:04:25.521Z,1.41
2017-12-16T05:05:25.461Z,1.34
2017-12-16T05:06:25.526Z,1.48
2017-12-16T05:07:25.417Z,1.34
2017-12-16T05:08:25.433Z,1.35
2017-12-16T05:09:25.361Z,1.40
2017-12-16T05:10:25.340Z,1.42
2017-12-16T05:11:25.352Z,1.38
2017-12-16T05:12:25.300Z,1.41
2017-12-16T05:13:25.286Z,1.34
2017-12-16T05:14:25.233Z,1.35
2017-12-16T05:15:25.250Z,1.32
2017-12-16T05:16:25.225Z,1.26
2017-12-16T05:17:25.182Z,1.34
2017-12-16T05:18:25.171Z,1.31
2017-12-16T05:19:25.142Z,1.37
2017-12-16T05:20:25.107Z,1.32
2017-12-16T05:21:25.096Z,1.26
2017-12-16T05:22:25.051Z,1.34
2017-12-16T05:23:25.037Z,1.30
2017-12-16T05:24:24.975Z,1.32
2017-12-16T05:25:24.970Z,1.32
2017-12-16T05:26:24.957Z,1.30
2017-12-16T05:27:24.934Z,1.32
2017-12-16T05:28:24.891Z,1.32
2017-12-16T05:29:24.890Z,1.34
2017-12-16T05:30:24.864Z,1.48
2017-12-16T05:31:24.815Z,1.35
2017-12-16T05:32:24.795Z,1.42
2017-12-16T05:33:24.829Z,1.48
2017-12-16T05:34:24.811Z,1.44
2017-12-16T05:35:24.769Z,1.42
2017-12-16T05:36:24.722Z,1.41
2017-12-16T05:37:24.656Z,1.50
2017-12-16T05:38:24.660Z,1.42
2017-12-16T05:39:24.648Z,1.42
2017-12-16T05:40:24.657Z,1.48
2017-12-16T05:41:24.606Z,1.45
2017-12-16T05:42:24.554Z,1.48
2017-12-16T05:43:24.552Z,1.50
2017-12-16T05:44:24.563Z,1.42
2017-12-16T05:45:24.459Z,1.42
2017-12-16T05:46:24.492Z,1.49
2017-12-16T05:47:24.430Z,1.37
2017-12-16T05:48:24.445Z,1.35
2017-12-16T05:49:24.404Z,1.37
2017-12-16T05:50:24.390Z,1.35
2017-12-16T05:51:24.361Z,1.38
2017-12-16T05:52:24.324Z,1.32
2017-12-16T05:53:24.313Z,1.30
2017-12-16T05:54:24.308Z,1.38
2017-12-16T05:55:24.304Z,1.38
2017-12-16T05:56:24.258Z,1.42
2017-12-16T05:57:24.162Z,1.37
2017-12-16T05:58:24.214Z,1.31
2017-12-16T05:59:24.170Z,1.35
2017-12-16T06:00:24.162Z,1.34
2017-12-16T06:01:24.077Z,1.38
2017-12-16T06:02:24.088Z,1.37
2017-12-16T06:03:24.071Z,1.37
2017-12-16T06:04:24.017Z,1.41
2017-12-16T06:05:23.985Z,1.40
2017-12-16T06:06:23.973Z,1.42
2017-12-16T06:07:23.939Z,1.44
2017-12-16T06:08:23.911Z,1.42
2017-12-16T06:09:23.896Z,1.41
2017-12-16T06:10:23.884Z,1.44
2017-12-16T06:11:23.826Z,1.41
2017-12-16T06:12:23.877Z,1.40
2017-12-16T06:13:23.801Z,1.40
2017-12-16T06:14:23.759Z,1.40
2017-12-16T06:15:23.762Z,1.52
2017-12-16T06:16:23.753Z,1.44
2017-12-16T06:17:23.686Z,1.49
2017-12-16T06:18:23.708Z,1.41
2017-12-16T06:19:23.674Z,1.49
2017-12-16T06:20:23.642Z,1.48
2017-12-16T06:21:23.621Z,1.40
2017-12-16T06:22:23.614Z,1.52
2017-12-16T06:23:23.576Z,1.41
2017-12-16T06:24:23.519Z,1.45
2017-12-16T06:25:23.521Z,1.49
2017-12-16T06:26:23.463Z,1.40
2017-12-16T06:27:23.454Z,1.42
2017-12-16T06:28:23.441Z,1.42
2017-12-16T06:29:23.426Z,1.52
2017-12-16T06:30:23.410Z,1.50
2017-12-16T06:31:23.383Z,1.45
2017-12-16T06:32:23.333Z,1.55
2017-12-16T06:33:23.302Z,1.53
2017-12-16T06:34:23.283Z,1.49
2017-12-16T06:35:23.275Z,1.53
2017-12-16T06:36:23.229Z,1.45
2017-12-16T06:37:23.199Z,1.44
2017-12-16T06:38:23.181Z,1.58
2017-12-16T06:39:23.211Z,1.53
2017-12-16T06:40:23.227Z,1.55
2017-12-16T06:41:23.126Z,1.49
2017-12-16T06:42:23.092Z,1.52
2017-12-16T06:43:23.064Z,1.53
2017-12-16T06:44:23.071Z,1.52
2017-12-16T06:45:23.032Z,1.55
2017-12-16T06:46:22.984Z,1.53
2017-12-16T06:47:22.962Z,1.52
2017-12-16T06:48:22.967Z,1.48
2017-12-16T06:49:22.948Z,1.48
2017-12-16T06:50:22.897Z,1.52
2017-12-16T06:51:22.884Z,1.52
2017-12-16T06:52:22.862Z,1.53
2017-12-16T06:53:22.828Z,1.50
2017-12-16T06:54:22.825Z,1.55
2017-12-16T06:55:22.820Z,1.50
2017-12-16T06:56:22.743Z,1.45
2017-12-16T06:57:22.807Z,1.55
2017-12-16T06:58:22.741Z,1.52
2017-12-16T06:59:22.674Z,1.52
2017-12-16T07:00:22.638Z,1.52
2017-12-16T07:01:22.648Z,1.52
2017-12-16T07:02:22.614Z,1.52
2017-12-16T07:03:22.587Z,1.52
2017-12-16T07:04:22.553Z,1.55
2017-12-16T07:05:22.529Z,1.52
2017-12-16T07:06:22.498Z,1.52
2017-12-16T07:07:22.481Z,1.52
2017-12-16T07:08:22.484Z,1.52
2017-12-16T07:09:22.453Z,1.55
2017-12-16T07:10:22.403Z,1.50
2017-12-16T07:11:22.416Z,1.49
2017-12-16T07:12:22.376Z,1.53
2017-12-16T07:13:23.085Z,1.48
2017-12-16T07:19:14.319Z,1.50
2017-12-16T07:20:14.948Z,1.53
2017-12-16T07:22:33.834Z,1.48
2017-12-16T07:23:34.119Z,1.53
2017-12-16T07:24:33.625Z,1.56
2017-12-16T07:25:33.602Z,1.49
2017-12-16T07:26:34.182Z,1.50
2017-12-16T07:27:33.547Z,1.42
2017-12-16T07:28:33.107Z,1.62
2017-12-16T07:29:33.621Z,1.56
2017-12-16T07:30:33.139Z,1.44
2017-12-16T07:31:33.647Z,1.55
2017-12-16T07:32:33.460Z,1.56
2017-12-16T07:33:33.026Z,1.52
2017-12-16T07:34:33.064Z,1.62
2017-12-16T07:35:33.078Z,1.50
2017-12-16T07:36:33.008Z,1.62
2017-12-16T07:37:32.189Z,1.55
2017-12-16T07:38:32.389Z,1.62
2017-12-16T07:39:31.976Z,1.50
2017-12-16T07:40:32.114Z,1.63
2017-12-16T07:41:32.188Z,1.59
2017-12-16T07:42:32.107Z,1.60
2017-12-16T07:43:32.228Z,1.56
2017-12-16T07:44:32.012Z,1.62
2017-12-16T07:45:32.269Z,1.58
2017-12-16T07:46:31.767Z,1.58
2017-12-16T07:47:32.112Z,1.66
2017-12-16T07:48:32.004Z,1.60
2017-12-16T07:49:31.855Z,1.63
2017-12-16T07:50:32.004Z,1.59
2017-12-16T07:51:31.962Z,1.58
2017-12-16T07:52:32.026Z,1.59
2017-12-16T07:53:31.997Z,1.63
2017-12-16T07:54:31.907Z,1.52
2017-12-16T07:55:31.919Z,1.59
2017-12-16T07:56:31.758Z,1.63
2017-12-16T07:57:31.824Z,1.56
2017-12-16T07:58:31.805Z,1.63
2017-12-16T07:59:32.105Z,1.62
2017-12-16T08:00:31.679Z,1.62
2017-12-16T08:01:31.665Z,1.60
2017-12-16T08:02:31.554Z,1.68
2017-12-16T08:03:31.558Z,1.63
2017-12-16T08:04:31.501Z,1.55
2017-12-16T08:05:31.667Z,1.60
2017-12-16T08:06:32.157Z,1.63
2017-12-16T08:07:31.562Z,1.63
2017-12-16T08:08:31.819Z,1.73
2017-12-16T08:09:31.515Z,1.60
2017-12-16T08:10:31.730Z,1.71
2017-12-16T08:11:31.530Z,1.71
2017-12-16T08:12:32.297Z,1.68
2017-12-16T08:13:31.708Z,1.63
2017-12-16T08:14:31.322Z,1.62
2017-12-16T08:15:31.244Z,1.71
2017-12-16T08:16:31.754Z,1.76
2017-12-16T08:17:31.274Z,1.85
2017-12-16T08:18:31.284Z,1.80
2017-12-16T08:19:31.366Z,1.85
2017-12-16T08:20:31.086Z,1.81
2017-12-16T08:21:31.207Z,1.77
2017-12-16T08:22:31.170Z,1.85
2017-12-16T08:23:31.121Z,1.88
2017-12-16T08:24:32.977Z,1.89
2017-12-16T08:25:31.138Z,1.94
2017-12-16T08:26:31.375Z,1.97
2017-12-16T08:27:31.097Z,2.00
2017-12-16T08:28:31.080Z,2.08
2017-12-16T08:29:31.799Z,2.00
2017-12-16T08:30:31.035Z,2.10
2017-12-16T08:31:30.840Z,2.13
2017-12-16T08:33:53.173Z,2.10
2017-12-16T08:34:52.547Z,2.15
2017-12-16T08:35:52.933Z,2.18
2017-12-16T08:36:52.765Z,2.07
2017-12-16T08:37:52.526Z,2.15
2017-12-16T08:38:56.540Z,2.15
2017-12-16T08:39:53.286Z,2.15
2017-12-16T08:40:52.326Z,2.17
2017-12-16T08:41:52.267Z,2.13
2017-12-16T08:42:52.283Z,2.14
2017-12-16T08:43:52.233Z,2.18
2017-12-16T08:44:52.235Z,2.08
2017-12-16T08:45:52.187Z,2.17
2017-12-16T08:46:52.136Z,2.14
2017-12-16T08:47:52.157Z,2.13
2017-12-16T08:48:52.119Z,2.17
2017-12-16T08:49:52.068Z,2.07
2017-12-16T08:50:52.079Z,2.13
2017-12-16T08:51:52.026Z,2.08
2017-12-16T08:52:51.985Z,2.15
2017-12-16T08:53:51.994Z,2.07
2017-12-16T08:54:51.989Z,2.13
2017-12-16T08:55:51.949Z,2.13
2017-12-16T08:56:51.918Z,2.08
2017-12-16T08:57:51.910Z,2.06
2017-12-16T08:58:51.840Z,2.00
2017-12-16T08:59:51.817Z,2.04
2017-12-16T09:00:51.879Z,2.08
2017-12-16T09:01:51.837Z,2.13
2017-12-16T09:02:51.758Z,2.15
2017-12-16T09:03:51.738Z,2.15
2017-12-16T09:04:51.720Z,2.15
2017-12-16T09:05:51.711Z,2.20
2017-12-16T09:06:51.682Z,2.14
2017-12-16T09:07:51.643Z,2.26
2017-12-16T09:08:51.613Z,2.29
2017-12-16T09:09:51.587Z,2.20
2017-12-16T09:10:51.631Z,2.29
2017-12-16T09:11:52.521Z,2.32
2017-12-16T09:12:51.506Z,2.38
2017-12-16T09:13:51.496Z,2.42
2017-12-16T09:14:51.473Z,2.36
2017-12-16T09:15:51.439Z,2.38
2017-12-16T09:16:51.718Z,2.42
2017-12-16T09:17:51.418Z,2.54
2017-12-16T09:18:51.424Z,2.49
2017-12-16T09:19:51.479Z,2.60
2017-12-16T09:20:51.425Z,2.67
2017-12-16T09:21:51.308Z,2.68
2017-12-16T09:22:51.269Z,2.79
2017-12-16T09:23:51.289Z,2.80
2017-12-16T09:24:51.328Z,2.93
2017-12-16T09:25:51.311Z,2.95
2017-12-16T09:26:51.299Z,2.93
2017-12-16T09:27:51.456Z,2.92
2017-12-16T09:28:51.122Z,2.97
2017-12-16T09:29:51.195Z,2.93
2017-12-16T09:30:51.089Z,2.95
2017-12-16T09:31:51.078Z,2.92
2017-12-16T09:32:51.096Z,2.93
2017-12-16T09:33:51.013Z,2.97
2017-12-16T09:34:51.117Z,2.95
2017-12-16T09:35:51.078Z,3.00
2017-12-16T09:36:51.007Z,2.95
2017-12-16T09:37:51.199Z,3.05
2017-12-16T09:38:51.571Z,3.10
2017-12-16T09:39:51.527Z,3.18
2017-12-16T09:40:50.894Z,3.13
2017-12-16T09:41:50.860Z,3.07
2017-12-16T09:42:51.009Z,3.16
2017-12-16T09:43:51.105Z,3.22
2017-12-16T09:44:51.002Z,3.29
2017-12-16T09:45:50.753Z,3.28
2017-12-16T09:46:53.094Z,3.26
2017-12-16T09:49:09.085Z,3.36
2017-12-16T09:49:53.642Z,3.29
2017-12-16T09:50:50.625Z,3.37
2017-12-16T09:51:50.709Z,3.32
2017-12-16T09:52:50.595Z,3.41
2017-12-16T09:53:50.554Z,3.45
2017-12-16T09:54:50.542Z,3.50
2017-12-16T09:55:50.549Z,3.53
2017-12-16T09:56:50.491Z,3.63
2017-12-16T09:57:50.471Z,3.65
2017-12-16T09:58:52.369Z,3.70
2017-12-16T09:59:50.439Z,3.77
2017-12-16T10:00:50.436Z,3.84
2017-12-16T10:01:50.386Z,3.95
2017-12-16T10:02:50.364Z,3.88
2017-12-16T10:03:50.313Z,3.94
2017-12-16T10:04:50.316Z,3.98
2017-12-16T10:05:50.321Z,4.01
2017-12-16T10:06:50.240Z,4.06
2017-12-16T10:07:50.216Z,4.01
2017-12-16T10:08:50.212Z,4.06
2017-12-16T10:09:50.402Z,4.17
2017-12-16T10:10:50.243Z,4.22
2017-12-16T10:11:50.140Z,4.14
2017-12-16T10:12:50.144Z,4.13
2017-12-16T10:13:50.077Z,4.14
2017-12-16T10:14:50.080Z,4.20
2017-12-16T10:15:50.075Z,4.24
2017-12-16T10:16:50.027Z,4.23
2017-12-16T10:17:50.011Z,4.16
2017-12-16T10:18:49.993Z,4.22
2017-12-16T10:19:49.984Z,4.02
2017-12-16T10:20:49.914Z,4.19
2017-12-16T10:21:49.941Z,4.16
2017-12-16T10:22:49.905Z,4.08
2017-12-16T10:23:49.893Z,3.99
2017-12-16T10:24:49.852Z,4.01
2017-12-16T10:25:49.810Z,4.05
2017-12-16T10:26:49.820Z,3.95
2017-12-16T10:27:49.773Z,3.98
2017-12-16T10:28:49.798Z,3.86
2017-12-16T10:29:49.758Z,3.87
2017-12-16T10:30:49.719Z,3.94
2017-12-16T10:31:50.496Z,4.04
2017-12-16T10:32:50.478Z,3.96
2017-12-16T10:33:49.683Z,4.08
2017-12-16T10:34:49.614Z,4.08
2017-12-16T10:35:49.657Z,4.06
2017-12-16T10:36:49.583Z,4.23
2017-12-16T10:37:49.585Z,4.26
2017-12-16T10:38:49.526Z,4.45
2017-12-16T10:39:49.546Z,4.75
2017-12-16T10:40:49.509Z,4.92
2017-12-16T10:41:49.509Z,5.21
2017-12-16T10:42:49.424Z,5.33
2017-12-16T10:43:49.437Z,5.47
2017-12-16T10:44:49.415Z,5.64
2017-12-16T10:45:49.380Z,5.79
2017-12-16T10:46:49.405Z,5.71
2017-12-16T10:47:49.312Z,5.73
2017-12-16T10:48:49.302Z,5.56
2017-12-16T10:49:49.322Z,5.41
2017-12-16T10:50:49.246Z,5.46
2017-12-16T10:51:49.222Z,5.28
2017-12-16T10:52:49.242Z,5.26
2017-12-16T10:53:49.192Z,5.21
2017-12-16T10:54:49.186Z,5.12
2017-12-16T10:55:49.148Z,5.20
2017-12-16T10:56:49.147Z,5.21
2017-12-16T10:57:49.114Z,5.33
2017-12-16T10:58:49.066Z,5.36
2017-12-16T10:59:49.052Z,5.50
2017-12-16T11:00:49.028Z,5.61
2017-12-16T11:01:49.028Z,5.62
2017-12-16T11:02:48.972Z,5.71
2017-12-16T11:03:48.965Z,5.69
2017-12-16T11:04:48.938Z,5.73
2017-12-16T11:05:48.963Z,5.83
2017-12-16T11:06:48.904Z,5.79
2017-12-16T11:07:48.873Z,5.84
2017-12-16T11:08:48.878Z,5.84
2017-12-16T11:09:48.831Z,5.75
2017-12-16T11:10:48.812Z,5.71
2017-12-16T11:11:48.819Z,5.61
2017-12-16T11:12:48.766Z,5.51
2017-12-16T11:13:48.739Z,5.54
2017-12-16T11:14:48.723Z,5.53
2017-12-16T11:15:48.731Z,5.50
2017-12-16T11:16:48.708Z,5.53
2017-12-16T11:17:48.655Z,5.50
2017-12-16T11:18:48.641Z,5.51
2017-12-16T11:19:49.427Z,5.51
2017-12-16T11:20:48.586Z,5.39
2017-12-16T11:21:48.566Z,5.39
2017-12-16T11:22:48.542Z,5.41
2017-12-16T11:23:48.526Z,5.46
2017-12-16T11:24:48.497Z,5.47
2017-12-16T11:25:48.476Z,5.48
2017-12-16T11:26:48.471Z,5.50
2017-12-16T11:27:48.421Z,5.47
2017-12-16T11:28:48.411Z,5.48
2017-12-16T11:29:48.422Z,5.38
2017-12-16T11:30:48.370Z,5.50
2017-12-16T11:31:48.333Z,5.65
2017-12-16T11:32:48.317Z,5.76
2017-12-16T11:33:48.337Z,5.99
2017-12-16T11:34:48.270Z,6.01
2017-12-16T11:35:48.298Z,6.19
2017-12-16T11:36:48.247Z,6.35
2017-12-16T11:37:48.248Z,6.52
2017-12-16T11:38:48.174Z,6.51
2017-12-16T11:39:48.176Z,6.54
2017-12-16T11:40:48.166Z,6.67
2017-12-16T11:41:48.228Z,6.70
2017-12-16T11:42:48.098Z,6.81
2017-12-16T11:43:48.128Z,6.89
2017-12-16T11:44:48.076Z,6.88
2017-12-16T11:45:48.057Z,6.92
2017-12-16T11:46:48.036Z,6.75
2017-12-16T11:47:48.018Z,6.85
2017-12-16T11:48:48.007Z,6.88
2017-12-16T11:49:47.942Z,6.87
2017-12-16T11:50:47.949Z,6.81
2017-12-16T11:51:48.026Z,6.89
2017-12-16T11:52:47.889Z,6.84
2017-12-16T11:53:47.856Z,6.75
2017-12-16T11:54:47.875Z,6.82
2017-12-16T11:55:47.849Z,6.92
2017-12-16T11:56:47.816Z,7.05
2017-12-16T11:57:47.808Z,7.07
2017-12-16T11:58:47.748Z,7.25
2017-12-16T11:59:47.752Z,7.29
2017-12-16T12:00:47.730Z,7.29
2017-12-16T12:01:47.715Z,7.33
2017-12-16T12:02:47.693Z,7.42
2017-12-16T12:03:47.671Z,7.42
2017-12-16T12:04:47.653Z,7.32
2017-12-16T12:05:47.624Z,7.18
2017-12-16T12:06:47.594Z,7.05
2017-12-16T12:07:47.578Z,6.92
2017-12-16T12:08:47.538Z,6.89
2017-12-16T12:09:47.603Z,6.85
2017-12-16T12:10:47.528Z,6.67
2017-12-16T12:11:47.492Z,6.57
2017-12-16T12:12:47.589Z,7.02
2017-12-16T12:13:47.615Z,7.48
2017-12-16T12:14:47.424Z,7.54
2017-12-16T12:15:47.392Z,7.63
2017-12-16T12:16:47.435Z,7.76
2017-12-16T12:17:47.383Z,7.95
2017-12-16T12:18:47.329Z,8.20
2017-12-16T12:19:47.326Z,8.67
2017-12-16T12:20:47.318Z,9.29
2017-12-16T12:21:47.273Z,9.66
2017-12-16T12:22:47.263Z,10.22
2017-12-16T12:23:47.299Z,10.34
2017-12-16T12:24:47.379Z,10.41
2017-12-16T12:25:47.180Z,10.44
2017-12-16T12:26:47.202Z,10.54
2017-12-16T12:27:47.152Z,10.82
2017-12-16T12:28:47.166Z,10.93
2017-12-16T12:29:47.128Z,10.82
2017-12-16T12:30:47.141Z,10.38
2017-12-16T12:31:47.111Z,9.73
2017-12-16T12:32:47.056Z,9.18
2017-12-16T12:33:47.075Z,8.88
2017-12-16T12:34:47.078Z,8.60
2017-12-16T12:35:46.993Z,8.45
2017-12-16T12:36:46.984Z,8.38
2017-12-16T12:37:47.122Z,8.31
2017-12-16T12:38:47.076Z,8.09
2017-12-16T12:39:47.488Z,8.13
2017-12-16T12:40:46.907Z,8.53
2017-12-16T12:41:46.947Z,9.21
2017-12-16T12:42:46.880Z,9.74
2017-12-16T12:43:46.844Z,9.99
2017-12-16T12:44:46.838Z,9.98
2017-12-16T12:45:46.811Z,9.80
2017-12-16T12:46:46.778Z,9.66
2017-12-16T12:47:46.769Z,9.51
2017-12-16T12:48:46.764Z,9.32
2017-12-16T12:49:46.733Z,9.00
2017-12-16T12:50:46.717Z,8.71
2017-12-16T12:51:46.683Z,8.63
2017-12-16T12:52:46.690Z,8.36
2017-12-16T12:53:46.641Z,8.05
2017-12-16T12:54:46.636Z,7.88
2017-12-16T12:55:46.626Z,7.66
2017-12-16T12:56:46.572Z,7.31
2017-12-16T12:57:46.578Z,7.13
2017-12-16T12:58:46.619Z,6.87
2017-12-16T12:59:46.543Z,6.67
2017-12-16T13:00:46.493Z,6.49
2017-12-16T13:01:46.500Z,6.33
2017-12-16T13:02:46.485Z,6.14
2017-12-16T13:03:46.460Z,5.91
2017-12-16T13:04:47.012Z,5.87
2017-12-16T13:05:46.490Z,5.71
2017-12-16T13:06:46.384Z,5.51
2017-12-16T13:07:46.363Z,5.51
2017-12-16T13:08:46.372Z,5.36
2017-12-16T13:09:46.304Z,5.38
2017-12-16T13:10:46.312Z,5.44
2017-12-16T13:11:46.271Z,5.47
2017-12-16T13:12:46.341Z,5.48
2017-12-16T13:13:46.327Z,5.41
2017-12-16T13:14:46.228Z,5.39
2017-12-16T13:15:46.197Z,5.43
2017-12-16T13:16:46.178Z,5.29
2017-12-16T13:17:46.161Z,5.32
2017-12-16T13:18:46.119Z,5.39
2017-12-16T13:19:46.147Z,5.25
2017-12-16T13:20:47.028Z,5.26
2017-12-16T13:21:46.081Z,5.15
2017-12-16T13:22:46.077Z,5.15
2017-12-16T13:23:46.034Z,5.05
2017-12-16T13:24:46.039Z,5.11
2017-12-16T13:25:45.976Z,5.07
2017-12-16T13:26:45.934Z,5.05
2017-12-16T13:27:45.928Z,5.05
2017-12-16T13:28:45.966Z,4.99
2017-12-16T13:29:45.907Z,4.97
2017-12-16T13:30:45.878Z,5.02
2017-12-16T13:31:45.891Z,4.93
2017-12-16T13:32:45.844Z,4.92
2017-12-16T13:33:45.796Z,4.96
2017-12-16T13:34:45.835Z,4.93
2017-12-16T13:35:45.784Z,4.80
2017-12-16T13:36:45.728Z,4.78
2017-12-16T13:37:45.727Z,4.68